sensor_id;sensor_type;location;lat;lon;timestamp;P1;durP1;ratioP1;P2;durP2;ratioP2
25581;SDS011;13462;50.764;4.332;2024-01-07T00:02:18;25.63;;;13.75;;
25581;SDS011;13462;50.764;4.332;2024-01-07T00:04:44;35.42;;;14.95;;
25581;SDS011;13462;50.764;4.332;2024-01-07T00:07:10;35.25;;;15.88;;
25581;SDS011;13462;50.764;4.332;2024-01-07T00:09:35;31.63;;;14.50;;
25581;SDS011;13462;50.764;4.332;2024-01-07T00:12:01;31.92;;;14.00;;
25581;SDS011;13462;50.764;4.332;2024-01-07T00:14:26;28.92;;;13.40;;
25581;SDS011;13462;50.764;4.332;2024-01-07T00:16:52;26.20;;;14.10;;
25581;SDS011;13462;50.764;4.332;2024-01-07T00:19:18;30.20;;;13.35;;
25581;SDS011;13462;50.764;4.332;2024-01-07T00:21:43;23.00;;;13.20;;
25581;SDS011;13462;50.764;4.332;2024-01-07T00:24:09;27.55;;;13.57;;
25581;SDS011;13462;50.764;4.332;2024-01-07T00:26:35;28.63;;;14.52;;
25581;SDS011;13462;50.764;4.332;2024-01-07T00:29:00;27.05;;;13.85;;
25581;SDS011;13462;50.764;4.332;2024-01-07T00:31:26;27.83;;;13.48;;
25581;SDS011;13462;50.764;4.332;2024-01-07T00:33:51;24.65;;;12.77;;
25581;SDS011;13462;50.764;4.332;2024-01-07T00:36:17;26.00;;;12.65;;
25581;SDS011;13462;50.764;4.332;2024-01-07T00:38:43;22.77;;;12.02;;
25581;SDS011;13462;50.764;4.332;2024-01-07T00:41:08;27.08;;;14.45;;
25581;SDS011;13462;50.764;4.332;2024-01-07T00:43:34;24.30;;;12.20;;
25581;SDS011;13462;50.764;4.332;2024-01-07T00:45:59;24.38;;;13.75;;
25581;SDS011;13462;50.764;4.332;2024-01-07T00:48:25;24.13;;;12.05;;
25581;SDS011;13462;50.764;4.332;2024-01-07T00:50:50;27.48;;;13.43;;
25581;SDS011;13462;50.764;4.332;2024-01-07T00:53:16;25.55;;;12.43;;
25581;SDS011;13462;50.764;4.332;2024-01-07T00:55:42;23.90;;;12.02;;
25581;SDS011;13462;50.764;4.332;2024-01-07T00:58:07;24.95;;;12.25;;
25581;SDS011;13462;50.764;4.332;2024-01-07T01:00:33;24.40;;;12.45;;
25581;SDS011;13462;50.764;4.332;2024-01-07T01:02:58;25.25;;;12.40;;
25581;SDS011;13462;50.764;4.332;2024-01-07T01:05:24;28.45;;;13.23;;
25581;SDS011;13462;50.764;4.332;2024-01-07T01:07:50;25.48;;;13.80;;
25581;SDS011;13462;50.764;4.332;2024-01-07T01:10:17;23.92;;;11.88;;
25581;SDS011;13462;50.764;4.332;2024-01-07T01:12:43;27.90;;;14.18;;
25581;SDS011;13462;50.764;4.332;2024-01-07T01:15:09;31.38;;;14.48;;
25581;SDS011;13462;50.764;4.332;2024-01-07T01:17:34;25.83;;;12.82;;
25581;SDS011;13462;50.764;4.332;2024-01-07T01:20:00;27.17;;;13.85;;
25581;SDS011;13462;50.764;4.332;2024-01-07T01:22:26;29.90;;;13.98;;
25581;SDS011;13462;50.764;4.332;2024-01-07T01:24:51;29.98;;;14.68;;
25581;SDS011;13462;50.764;4.332;2024-01-07T01:27:18;27.80;;;13.73;;
25581;SDS011;13462;50.764;4.332;2024-01-07T01:29:44;32.35;;;15.43;;
25581;SDS011;13462;50.764;4.332;2024-01-07T01:32:09;29.15;;;14.55;;
25581;SDS011;13462;50.764;4.332;2024-01-07T01:34:35;28.45;;;14.40;;
25581;SDS011;13462;50.764;4.332;2024-01-07T01:37:01;29.45;;;13.90;;
25581;SDS011;13462;50.764;4.332;2024-01-07T01:39:28;27.73;;;14.30;;
25581;SDS011;13462;50.764;4.332;2024-01-07T01:41:54;26.88;;;14.63;;
25581;SDS011;13462;50.764;4.332;2024-01-07T01:44:20;31.52;;;14.55;;
25581;SDS011;13462;50.764;4.332;2024-01-07T01:46:46;30.98;;;14.18;;
25581;SDS011;13462;50.764;4.332;2024-01-07T01:49:12;27.40;;;13.75;;
25581;SDS011;13462;50.764;4.332;2024-01-07T01:51:38;25.65;;;14.18;;
25581;SDS011;13462;50.764;4.332;2024-01-07T01:54:04;26.50;;;13.57;;
25581;SDS011;13462;50.764;4.332;2024-01-07T01:56:31;27.10;;;14.15;;
25581;SDS011;13462;50.764;4.332;2024-01-07T01:58:57;34.90;;;14.80;;
25581;SDS011;13462;50.764;4.332;2024-01-07T02:01:24;29.63;;;14.10;;
25581;SDS011;13462;50.764;4.332;2024-01-07T02:03:50;29.88;;;14.60;;
25581;SDS011;13462;50.764;4.332;2024-01-07T02:06:17;28.85;;;13.75;;
25581;SDS011;13462;50.764;4.332;2024-01-07T02:08:43;27.63;;;14.75;;
25581;SDS011;13462;50.764;4.332;2024-01-07T02:11:16;31.25;;;15.77;;
25581;SDS011;13462;50.764;4.332;2024-01-07T02:13:46;28.80;;;15.38;;
25581;SDS011;13462;50.764;4.332;2024-01-07T02:16:12;28.65;;;15.30;;
25581;SDS011;13462;50.764;4.332;2024-01-07T02:18:39;30.25;;;15.90;;
25581;SDS011;13462;50.764;4.332;2024-01-07T02:21:09;29.55;;;16.95;;
25581;SDS011;13462;50.764;4.332;2024-01-07T02:23:36;31.90;;;16.27;;
25581;SDS011;13462;50.764;4.332;2024-01-07T02:26:02;31.13;;;16.42;;
25581;SDS011;13462;50.764;4.332;2024-01-07T02:28:28;32.05;;;16.90;;
25581;SDS011;13462;50.764;4.332;2024-01-07T02:30:54;31.23;;;16.05;;
25581;SDS011;13462;50.764;4.332;2024-01-07T02:33:20;32.58;;;16.83;;
25581;SDS011;13462;50.764;4.332;2024-01-07T02:35:45;35.83;;;17.13;;
25581;SDS011;13462;50.764;4.332;2024-01-07T02:38:11;30.42;;;16.08;;
25581;SDS011;13462;50.764;4.332;2024-01-07T02:40:37;32.38;;;16.15;;
25581;SDS011;13462;50.764;4.332;2024-01-07T02:43:02;30.50;;;17.00;;
25581;SDS011;13462;50.764;4.332;2024-01-07T02:45:28;28.90;;;14.70;;
25581;SDS011;13462;50.764;4.332;2024-01-07T02:47:54;27.05;;;14.02;;
25581;SDS011;13462;50.764;4.332;2024-01-07T02:50:19;29.33;;;14.45;;
25581;SDS011;13462;50.764;4.332;2024-01-07T02:52:45;25.70;;;13.35;;
25581;SDS011;13462;50.764;4.332;2024-01-07T02:55:10;30.70;;;14.32;;
25581;SDS011;13462;50.764;4.332;2024-01-07T02:57:36;25.10;;;12.90;;
25581;SDS011;13462;50.764;4.332;2024-01-07T03:00:02;22.88;;;12.88;;
25581;SDS011;13462;50.764;4.332;2024-01-07T03:02:29;24.23;;;12.27;;
25581;SDS011;13462;50.764;4.332;2024-01-07T03:04:55;22.27;;;11.75;;
25581;SDS011;13462;50.764;4.332;2024-01-07T03:07:21;22.50;;;11.55;;
25581;SDS011;13462;50.764;4.332;2024-01-07T03:09:47;25.92;;;12.77;;
25581;SDS011;13462;50.764;4.332;2024-01-07T03:12:14;27.90;;;12.57;;
25581;SDS011;13462;50.764;4.332;2024-01-07T03:14:40;27.42;;;13.02;;
25581;SDS011;13462;50.764;4.332;2024-01-07T03:17:06;26.10;;;13.23;;
25581;SDS011;13462;50.764;4.332;2024-01-07T03:19:32;25.58;;;12.52;;
25581;SDS011;13462;50.764;4.332;2024-01-07T03:21:58;26.35;;;13.70;;
25581;SDS011;13462;50.764;4.332;2024-01-07T03:24:23;29.73;;;13.55;;
25581;SDS011;13462;50.764;4.332;2024-01-07T03:26:49;24.92;;;13.75;;
25581;SDS011;13462;50.764;4.332;2024-01-07T03:29:15;28.63;;;14.52;;
25581;SDS011;13462;50.764;4.332;2024-01-07T03:31:40;32.85;;;14.55;;
25581;SDS011;13462;50.764;4.332;2024-01-07T03:34:06;26.15;;;14.07;;
25581;SDS011;13462;50.764;4.332;2024-01-07T03:36:32;29.55;;;14.23;;
25581;SDS011;13462;50.764;4.332;2024-01-07T03:38:57;30.20;;;14.98;;
25581;SDS011;13462;50.764;4.332;2024-01-07T03:41:23;30.38;;;14.05;;
25581;SDS011;13462;50.764;4.332;2024-01-07T03:43:49;31.83;;;15.57;;
25581;SDS011;13462;50.764;4.332;2024-01-07T03:46:15;30.98;;;14.57;;
25581;SDS011;13462;50.764;4.332;2024-01-07T03:48:42;31.83;;;16.58;;
25581;SDS011;13462;50.764;4.332;2024-01-07T03:51:08;35.17;;;16.75;;
25581;SDS011;13462;50.764;4.332;2024-01-07T03:53:34;35.08;;;16.25;;
25581;SDS011;13462;50.764;4.332;2024-01-07T03:55:59;35.38;;;17.05;;
25581;SDS011;13462;50.764;4.332;2024-01-07T03:58:25;37.47;;;17.95;;
25581;SDS011;13462;50.764;4.332;2024-01-07T04:00:51;39.67;;;17.05;;
25581;SDS011;13462;50.764;4.332;2024-01-07T04:03:17;40.20;;;18.77;;
25581;SDS011;13462;50.764;4.332;2024-01-07T04:05:42;45.13;;;17.92;;
25581;SDS011;13462;50.764;4.332;2024-01-07T04:08:10;34.47;;;16.63;;
25581;SDS011;13462;50.764;4.332;2024-01-07T04:10:36;42.42;;;18.60;;
25581;SDS011;13462;50.764;4.332;2024-01-07T04:13:02;39.47;;;17.88;;
25581;SDS011;13462;50.764;4.332;2024-01-07T04:15:29;38.30;;;17.63;;
25581;SDS011;13462;50.764;4.332;2024-01-07T04:17:54;40.65;;;18.08;;
25581;SDS011;13462;50.764;4.332;2024-01-07T04:20:20;39.67;;;17.77;;
25581;SDS011;13462;50.764;4.332;2024-01-07T04:22:46;39.53;;;17.20;;
25581;SDS011;13462;50.764;4.332;2024-01-07T04:25:11;44.10;;;19.40;;
25581;SDS011;13462;50.764;4.332;2024-01-07T04:27:37;42.22;;;18.88;;
25581;SDS011;13462;50.764;4.332;2024-01-07T04:30:04;42.70;;;18.23;;
25581;SDS011;13462;50.764;4.332;2024-01-07T04:32:30;37.78;;;19.05;;
25581;SDS011;13462;50.764;4.332;2024-01-07T04:34:56;48.67;;;19.10;;
25581;SDS011;13462;50.764;4.332;2024-01-07T04:37:23;44.83;;;19.13;;
25581;SDS011;13462;50.764;4.332;2024-01-07T04:39:49;45.65;;;20.65;;
25581;SDS011;13462;50.764;4.332;2024-01-07T04:42:15;48.53;;;21.65;;
25581;SDS011;13462;50.764;4.332;2024-01-07T04:44:41;48.40;;;21.33;;
25581;SDS011;13462;50.764;4.332;2024-01-07T04:49:56;46.58;;;19.73;;
25581;SDS011;13462;50.764;4.332;2024-01-07T04:52:25;52.42;;;22.42;;
25581;SDS011;13462;50.764;4.332;2024-01-07T04:54:51;53.65;;;22.30;;
25581;SDS011;13462;50.764;4.332;2024-01-07T04:57:18;54.20;;;23.42;;
25581;SDS011;13462;50.764;4.332;2024-01-07T04:59:43;55.80;;;24.10;;
25581;SDS011;13462;50.764;4.332;2024-01-07T05:02:10;48.17;;;21.75;;
25581;SDS011;13462;50.764;4.332;2024-01-07T05:04:36;57.30;;;23.23;;
25581;SDS011;13462;50.764;4.332;2024-01-07T05:07:02;61.03;;;24.00;;
25581;SDS011;13462;50.764;4.332;2024-01-07T05:09:28;62.47;;;24.73;;
25581;SDS011;13462;50.764;4.332;2024-01-07T05:11:53;58.83;;;24.10;;
25581;SDS011;13462;50.764;4.332;2024-01-07T05:14:19;60.75;;;23.80;;
25581;SDS011;13462;50.764;4.332;2024-01-07T05:16:44;57.15;;;23.80;;
25581;SDS011;13462;50.764;4.332;2024-01-07T05:19:10;61.90;;;25.10;;
25581;SDS011;13462;50.764;4.332;2024-01-07T05:21:35;62.90;;;24.63;;
25581;SDS011;13462;50.764;4.332;2024-01-07T05:24:01;51.35;;;22.15;;
25581;SDS011;13462;50.764;4.332;2024-01-07T05:26:27;60.70;;;24.05;;
25581;SDS011;13462;50.764;4.332;2024-01-07T05:28:52;61.65;;;23.77;;
25581;SDS011;13462;50.764;4.332;2024-01-07T05:31:18;54.80;;;24.65;;
25581;SDS011;13462;50.764;4.332;2024-01-07T05:33:44;60.38;;;23.33;;
25581;SDS011;13462;50.764;4.332;2024-01-07T05:36:11;57.63;;;22.63;;
25581;SDS011;13462;50.764;4.332;2024-01-07T05:38:37;58.35;;;24.17;;
25581;SDS011;13462;50.764;4.332;2024-01-07T05:41:03;56.15;;;24.33;;
25581;SDS011;13462;50.764;4.332;2024-01-07T05:43:29;56.28;;;24.92;;
25581;SDS011;13462;50.764;4.332;2024-01-07T05:45:55;66.28;;;26.50;;
25581;SDS011;13462;50.764;4.332;2024-01-07T05:48:21;62.50;;;25.23;;
25581;SDS011;13462;50.764;4.332;2024-01-07T05:50:47;61.05;;;24.20;;
25581;SDS011;13462;50.764;4.332;2024-01-07T05:53:13;64.45;;;25.52;;
25581;SDS011;13462;50.764;4.332;2024-01-07T05:55:38;60.08;;;25.20;;
25581;SDS011;13462;50.764;4.332;2024-01-07T05:58:04;59.50;;;23.42;;
25581;SDS011;13462;50.764;4.332;2024-01-07T06:00:30;65.10;;;25.75;;
25581;SDS011;13462;50.764;4.332;2024-01-07T06:02:55;67.72;;;25.50;;
25581;SDS011;13462;50.764;4.332;2024-01-07T06:05:21;65.85;;;26.30;;
25581;SDS011;13462;50.764;4.332;2024-01-07T06:07:47;64.53;;;25.48;;
25581;SDS011;13462;50.764;4.332;2024-01-07T06:10:12;66.40;;;24.33;;
25581;SDS011;13462;50.764;4.332;2024-01-07T06:12:38;67.97;;;26.27;;
25581;SDS011;13462;50.764;4.332;2024-01-07T06:15:04;59.25;;;23.55;;
25581;SDS011;13462;50.764;4.332;2024-01-07T06:17:30;62.78;;;26.13;;
25581;SDS011;13462;50.764;4.332;2024-01-07T06:19:56;60.53;;;23.55;;
25581;SDS011;13462;50.764;4.332;2024-01-07T06:22:22;59.70;;;23.40;;
25581;SDS011;13462;50.764;4.332;2024-01-07T06:24:48;63.65;;;24.70;;
25581;SDS011;13462;50.764;4.332;2024-01-07T06:27:14;64.75;;;26.75;;
25581;SDS011;13462;50.764;4.332;2024-01-07T06:29:39;61.13;;;24.77;;
25581;SDS011;13462;50.764;4.332;2024-01-07T06:32:05;67.55;;;24.55;;
25581;SDS011;13462;50.764;4.332;2024-01-07T06:34:31;61.53;;;24.33;;
25581;SDS011;13462;50.764;4.332;2024-01-07T06:36:58;60.20;;;23.58;;
25581;SDS011;13462;50.764;4.332;2024-01-07T06:39:23;61.42;;;24.00;;
25581;SDS011;13462;50.764;4.332;2024-01-07T06:41:52;61.17;;;24.95;;
25581;SDS011;13462;50.764;4.332;2024-01-07T06:44:17;57.03;;;23.45;;
25581;SDS011;13462;50.764;4.332;2024-01-07T06:46:43;61.90;;;25.48;;
25581;SDS011;13462;50.764;4.332;2024-01-07T06:49:09;67.40;;;25.98;;
25581;SDS011;13462;50.764;4.332;2024-01-07T06:51:34;68.03;;;24.45;;
25581;SDS011;13462;50.764;4.332;2024-01-07T06:54:00;61.13;;;24.33;;
25581;SDS011;13462;50.764;4.332;2024-01-07T06:56:26;57.65;;;23.98;;
25581;SDS011;13462;50.764;4.332;2024-01-07T06:58:51;60.13;;;23.88;;
25581;SDS011;13462;50.764;4.332;2024-01-07T07:01:19;62.17;;;22.73;;
25581;SDS011;13462;50.764;4.332;2024-01-07T07:03:45;61.67;;;24.00;;
25581;SDS011;13462;50.764;4.332;2024-01-07T07:06:11;57.75;;;23.48;;
25581;SDS011;13462;50.764;4.332;2024-01-07T07:08:37;58.75;;;22.73;;
25581;SDS011;13462;50.764;4.332;2024-01-07T07:11:03;63.25;;;23.77;;
25581;SDS011;13462;50.764;4.332;2024-01-07T07:13:29;60.03;;;23.02;;
25581;SDS011;13462;50.764;4.332;2024-01-07T07:15:54;64.25;;;22.02;;
25581;SDS011;13462;50.764;4.332;2024-01-07T07:18:20;61.67;;;22.27;;
25581;SDS011;13462;50.764;4.332;2024-01-07T07:20:46;64.80;;;23.42;;
25581;SDS011;13462;50.764;4.332;2024-01-07T07:23:12;63.15;;;22.25;;
25581;SDS011;13462;50.764;4.332;2024-01-07T07:25:38;65.03;;;22.88;;
25581;SDS011;13462;50.764;4.332;2024-01-07T07:28:04;62.83;;;22.88;;
25581;SDS011;13462;50.764;4.332;2024-01-07T07:30:30;71.25;;;24.27;;
25581;SDS011;13462;50.764;4.332;2024-01-07T07:32:55;75.05;;;23.70;;
25581;SDS011;13462;50.764;4.332;2024-01-07T07:35:21;63.92;;;24.25;;
25581;SDS011;13462;50.764;4.332;2024-01-07T07:37:47;68.75;;;23.88;;
25581;SDS011;13462;50.764;4.332;2024-01-07T07:40:12;73.03;;;24.55;;
25581;SDS011;13462;50.764;4.332;2024-01-07T07:42:38;62.45;;;23.23;;
25581;SDS011;13462;50.764;4.332;2024-01-07T07:45:04;72.20;;;24.67;;
25581;SDS011;13462;50.764;4.332;2024-01-07T07:47:30;68.65;;;24.88;;
25581;SDS011;13462;50.764;4.332;2024-01-07T07:49:56;75.40;;;26.17;;
25581;SDS011;13462;50.764;4.332;2024-01-07T07:52:22;67.85;;;23.67;;
25581;SDS011;13462;50.764;4.332;2024-01-07T07:54:51;71.13;;;24.95;;
25581;SDS011;13462;50.764;4.332;2024-01-07T07:57:17;68.00;;;22.83;;
25581;SDS011;13462;50.764;4.332;2024-01-07T07:59:44;74.50;;;23.98;;
25581;SDS011;13462;50.764;4.332;2024-01-07T08:02:10;76.40;;;24.90;;
25581;SDS011;13462;50.764;4.332;2024-01-07T08:04:35;74.60;;;23.60;;
25581;SDS011;13462;50.764;4.332;2024-01-07T08:07:02;83.78;;;27.25;;
25581;SDS011;13462;50.764;4.332;2024-01-07T08:09:27;81.97;;;25.75;;
25581;SDS011;13462;50.764;4.332;2024-01-07T08:11:53;76.07;;;24.00;;
25581;SDS011;13462;50.764;4.332;2024-01-07T08:14:18;81.15;;;25.83;;
25581;SDS011;13462;50.764;4.332;2024-01-07T08:16:44;76.07;;;26.30;;
25581;SDS011;13462;50.764;4.332;2024-01-07T08:19:10;74.60;;;27.35;;
25581;SDS011;13462;50.764;4.332;2024-01-07T08:21:36;76.70;;;26.02;;
25581;SDS011;13462;50.764;4.332;2024-01-07T08:24:01;80.13;;;25.95;;
25581;SDS011;13462;50.764;4.332;2024-01-07T08:26:29;66.60;;;25.10;;
25581;SDS011;13462;50.764;4.332;2024-01-07T08:28:54;70.75;;;25.70;;
25581;SDS011;13462;50.764;4.332;2024-01-07T08:31:20;77.35;;;27.02;;
25581;SDS011;13462;50.764;4.332;2024-01-07T08:33:45;77.38;;;25.95;;
25581;SDS011;13462;50.764;4.332;2024-01-07T08:36:11;74.90;;;26.33;;
25581;SDS011;13462;50.764;4.332;2024-01-07T08:38:37;75.00;;;25.35;;
25581;SDS011;13462;50.764;4.332;2024-01-07T08:41:02;71.07;;;25.17;;
25581;SDS011;13462;50.764;4.332;2024-01-07T08:43:28;78.63;;;25.23;;
25581;SDS011;13462;50.764;4.332;2024-01-07T08:45:54;75.75;;;26.73;;
25581;SDS011;13462;50.764;4.332;2024-01-07T08:48:19;74.47;;;24.48;;
25581;SDS011;13462;50.764;4.332;2024-01-07T08:50:45;66.90;;;22.05;;
25581;SDS011;13462;50.764;4.332;2024-01-07T08:53:11;75.18;;;24.08;;
25581;SDS011;13462;50.764;4.332;2024-01-07T08:55:37;64.28;;;21.35;;
25581;SDS011;13462;50.764;4.332;2024-01-07T08:58:03;73.93;;;25.23;;
25581;SDS011;13462;50.764;4.332;2024-01-07T09:00:28;72.50;;;22.90;;
25581;SDS011;13462;50.764;4.332;2024-01-07T09:02:56;62.13;;;21.20;;
25581;SDS011;13462;50.764;4.332;2024-01-07T09:05:22;59.83;;;22.92;;
25581;SDS011;13462;50.764;4.332;2024-01-07T09:07:49;56.60;;;19.35;;
25581;SDS011;13462;50.764;4.332;2024-01-07T09:10:15;56.95;;;19.77;;
25581;SDS011;13462;50.764;4.332;2024-01-07T09:12:41;57.28;;;20.95;;
25581;SDS011;13462;50.764;4.332;2024-01-07T09:15:06;54.10;;;20.70;;
25581;SDS011;13462;50.764;4.332;2024-01-07T09:17:34;49.92;;;21.45;;
25581;SDS011;13462;50.764;4.332;2024-01-07T09:20:05;49.30;;;18.48;;
25581;SDS011;13462;50.764;4.332;2024-01-07T09:22:33;47.20;;;18.83;;
25581;SDS011;13462;50.764;4.332;2024-01-07T09:25:02;50.63;;;18.98;;
25581;SDS011;13462;50.764;4.332;2024-01-07T09:27:29;43.88;;;18.25;;
25581;SDS011;13462;50.764;4.332;2024-01-07T09:29:55;51.53;;;19.83;;
25581;SDS011;13462;50.764;4.332;2024-01-07T09:32:21;52.58;;;21.35;;
25581;SDS011;13462;50.764;4.332;2024-01-07T09:34:47;48.67;;;21.10;;
25581;SDS011;13462;50.764;4.332;2024-01-07T09:37:13;50.25;;;20.10;;
25581;SDS011;13462;50.764;4.332;2024-01-07T09:46:23;59.65;;;22.55;;
25581;SDS011;13462;50.764;4.332;2024-01-07T09:48:49;57.75;;;22.52;;
25581;SDS011;13462;50.764;4.332;2024-01-07T09:51:15;62.58;;;24.52;;
25581;SDS011;13462;50.764;4.332;2024-01-07T09:53:46;54.67;;;22.15;;
25581;SDS011;13462;50.764;4.332;2024-01-07T09:56:25;53.80;;;23.07;;
25581;SDS011;13462;50.764;4.332;2024-01-07T09:58:57;59.25;;;21.45;;
25581;SDS011;13462;50.764;4.332;2024-01-07T10:04:00;49.05;;;21.08;;
25581;SDS011;13462;50.764;4.332;2024-01-07T10:06:26;52.17;;;21.52;;
25581;SDS011;13462;50.764;4.332;2024-01-07T10:08:52;48.67;;;20.45;;
25581;SDS011;13462;50.764;4.332;2024-01-07T10:11:18;49.28;;;21.77;;
25581;SDS011;13462;50.764;4.332;2024-01-07T10:13:46;47.55;;;19.58;;
25581;SDS011;13462;50.764;4.332;2024-01-07T10:16:13;54.33;;;21.80;;
25581;SDS011;13462;50.764;4.332;2024-01-07T10:18:39;48.90;;;21.20;;
25581;SDS011;13462;50.764;4.332;2024-01-07T10:21:06;48.95;;;22.10;;
25581;SDS011;13462;50.764;4.332;2024-01-07T10:23:32;55.85;;;23.13;;
25581;SDS011;13462;50.764;4.332;2024-01-07T10:25:58;60.88;;;23.65;;
25581;SDS011;13462;50.764;4.332;2024-01-07T10:28:23;51.33;;;23.33;;
25581;SDS011;13462;50.764;4.332;2024-01-07T10:30:49;53.15;;;21.30;;
25581;SDS011;13462;50.764;4.332;2024-01-07T10:33:19;55.42;;;23.85;;
25581;SDS011;13462;50.764;4.332;2024-01-07T10:35:48;54.05;;;22.88;;
25581;SDS011;13462;50.764;4.332;2024-01-07T10:38:18;52.92;;;22.65;;
25581;SDS011;13462;50.764;4.332;2024-01-07T10:40:45;56.33;;;23.98;;
25581;SDS011;13462;50.764;4.332;2024-01-07T10:43:13;53.33;;;23.60;;
25581;SDS011;13462;50.764;4.332;2024-01-07T10:45:42;54.55;;;23.65;;
25581;SDS011;13462;50.764;4.332;2024-01-07T10:48:10;60.10;;;23.90;;
25581;SDS011;13462;50.764;4.332;2024-01-07T10:50:37;57.17;;;25.17;;
25581;SDS011;13462;50.764;4.332;2024-01-07T10:53:04;54.05;;;22.63;;
25581;SDS011;13462;50.764;4.332;2024-01-07T10:55:58;55.47;;;23.00;;
25581;SDS011;13462;50.764;4.332;2024-01-07T10:58:29;59.00;;;25.20;;
25581;SDS011;13462;50.764;4.332;2024-01-07T11:01:00;51.50;;;20.25;;
25581;SDS011;13462;50.764;4.332;2024-01-07T11:11:44;56.92;;;24.15;;
25581;SDS011;13462;50.764;4.332;2024-01-07T11:17:10;61.25;;;24.90;;
25581;SDS011;13462;50.764;4.332;2024-01-07T11:19:38;60.55;;;23.85;;
25581;SDS011;13462;50.764;4.332;2024-01-07T11:22:25;63.65;;;25.80;;
25581;SDS011;13462;50.764;4.332;2024-01-07T11:25:28;60.30;;;24.73;;
25581;SDS011;13462;50.764;4.332;2024-01-07T11:27:58;65.35;;;26.98;;
25581;SDS011;13462;50.764;4.332;2024-01-07T11:30:26;53.30;;;24.58;;
25581;SDS011;13462;50.764;4.332;2024-01-07T11:33:01;58.10;;;24.40;;
25581;SDS011;13462;50.764;4.332;2024-01-07T11:38:26;63.22;;;25.17;;
25581;SDS011;13462;50.764;4.332;2024-01-07T11:40:52;59.08;;;24.25;;
25581;SDS011;13462;50.764;4.332;2024-01-07T11:43:20;55.83;;;25.55;;
25581;SDS011;13462;50.764;4.332;2024-01-07T11:45:50;60.72;;;24.98;;
25581;SDS011;13462;50.764;4.332;2024-01-07T11:48:17;55.08;;;23.60;;
25581;SDS011;13462;50.764;4.332;2024-01-07T11:50:43;52.80;;;23.05;;
25581;SDS011;13462;50.764;4.332;2024-01-07T11:53:11;51.65;;;20.40;;
25581;SDS011;13462;50.764;4.332;2024-01-07T11:55:37;45.60;;;20.63;;
25581;SDS011;13462;50.764;4.332;2024-01-07T11:58:03;43.83;;;20.00;;
25581;SDS011;13462;50.764;4.332;2024-01-07T12:00:32;44.88;;;18.60;;
25581;SDS011;13462;50.764;4.332;2024-01-07T12:03:01;47.20;;;19.00;;
25581;SDS011;13462;50.764;4.332;2024-01-07T12:05:28;50.55;;;20.75;;
25581;SDS011;13462;50.764;4.332;2024-01-07T12:07:54;47.88;;;19.70;;
25581;SDS011;13462;50.764;4.332;2024-01-07T12:10:20;44.70;;;18.63;;
25581;SDS011;13462;50.764;4.332;2024-01-07T12:12:46;48.85;;;20.05;;
25581;SDS011;13462;50.764;4.332;2024-01-07T12:15:12;45.85;;;19.08;;
25581;SDS011;13462;50.764;4.332;2024-01-07T12:17:39;42.95;;;19.10;;
25581;SDS011;13462;50.764;4.332;2024-01-07T12:20:05;44.38;;;19.85;;
25581;SDS011;13462;50.764;4.332;2024-01-07T12:22:32;48.05;;;19.67;;
25581;SDS011;13462;50.764;4.332;2024-01-07T12:25:07;51.63;;;18.77;;
25581;SDS011;13462;50.764;4.332;2024-01-07T12:27:33;46.13;;;20.92;;
25581;SDS011;13462;50.764;4.332;2024-01-07T12:30:00;44.88;;;19.60;;
25581;SDS011;13462;50.764;4.332;2024-01-07T12:32:27;42.28;;;18.90;;
25581;SDS011;13462;50.764;4.332;2024-01-07T12:34:53;46.53;;;19.75;;
25581;SDS011;13462;50.764;4.332;2024-01-07T12:37:21;46.22;;;19.05;;
25581;SDS011;13462;50.764;4.332;2024-01-07T12:39:47;49.05;;;20.33;;
25581;SDS011;13462;50.764;4.332;2024-01-07T12:42:12;41.35;;;19.55;;
25581;SDS011;13462;50.764;4.332;2024-01-07T12:44:38;47.88;;;18.95;;
25581;SDS011;13462;50.764;4.332;2024-01-07T12:47:04;42.63;;;17.00;;
25581;SDS011;13462;50.764;4.332;2024-01-07T12:49:30;41.88;;;20.00;;
25581;SDS011;13462;50.764;4.332;2024-01-07T12:51:56;44.88;;;20.35;;
25581;SDS011;13462;50.764;4.332;2024-01-07T12:54:22;39.67;;;16.73;;
25581;SDS011;13462;50.764;4.332;2024-01-07T12:56:49;46.75;;;19.30;;
25581;SDS011;13462;50.764;4.332;2024-01-07T12:59:15;40.95;;;18.48;;
25581;SDS011;13462;50.764;4.332;2024-01-07T13:01:40;43.58;;;18.60;;
25581;SDS011;13462;50.764;4.332;2024-01-07T13:04:06;41.47;;;19.70;;
25581;SDS011;13462;50.764;4.332;2024-01-07T13:06:34;46.38;;;19.98;;
25581;SDS011;13462;50.764;4.332;2024-01-07T13:09:00;41.08;;;19.67;;
25581;SDS011;13462;50.764;4.332;2024-01-07T13:11:28;37.85;;;18.75;;
25581;SDS011;13462;50.764;4.332;2024-01-07T13:13:55;44.75;;;19.83;;
25581;SDS011;13462;50.764;4.332;2024-01-07T13:16:25;42.53;;;19.08;;
25581;SDS011;13462;50.764;4.332;2024-01-07T13:18:51;49.08;;;19.15;;
25581;SDS011;13462;50.764;4.332;2024-01-07T13:21:16;32.80;;;17.10;;
25581;SDS011;13462;50.764;4.332;2024-01-07T13:23:43;33.13;;;17.10;;
25581;SDS011;13462;50.764;4.332;2024-01-07T13:26:09;36.05;;;17.52;;
25581;SDS011;13462;50.764;4.332;2024-01-07T13:28:35;34.67;;;17.13;;
25581;SDS011;13462;50.764;4.332;2024-01-07T13:31:01;38.33;;;17.02;;
25581;SDS011;13462;50.764;4.332;2024-01-07T13:33:28;37.00;;;15.88;;
25581;SDS011;13462;50.764;4.332;2024-01-07T13:35:54;38.17;;;18.33;;
25581;SDS011;13462;50.764;4.332;2024-01-07T13:38:20;36.63;;;17.30;;
25581;SDS011;13462;50.764;4.332;2024-01-07T13:40:46;36.10;;;17.38;;
25581;SDS011;13462;50.764;4.332;2024-01-07T13:43:12;36.20;;;16.77;;
25581;SDS011;13462;50.764;4.332;2024-01-07T13:45:37;39.33;;;18.15;;
25581;SDS011;13462;50.764;4.332;2024-01-07T13:48:03;32.78;;;15.75;;
25581;SDS011;13462;50.764;4.332;2024-01-07T13:50:29;30.33;;;15.40;;
25581;SDS011;13462;50.764;4.332;2024-01-07T13:52:54;38.38;;;17.08;;
25581;SDS011;13462;50.764;4.332;2024-01-07T13:55:20;36.40;;;15.82;;
25581;SDS011;13462;50.764;4.332;2024-01-07T13:57:46;36.42;;;18.35;;
25581;SDS011;13462;50.764;4.332;2024-01-07T14:00:12;33.90;;;16.50;;
25581;SDS011;13462;50.764;4.332;2024-01-07T14:02:43;36.13;;;16.90;;
25581;SDS011;13462;50.764;4.332;2024-01-07T14:05:10;34.80;;;16.80;;
25581;SDS011;13462;50.764;4.332;2024-01-07T14:07:37;39.67;;;20.25;;
25581;SDS011;13462;50.764;4.332;2024-01-07T14:10:03;34.25;;;16.25;;
25581;SDS011;13462;50.764;4.332;2024-01-07T14:12:30;33.42;;;17.42;;
25581;SDS011;13462;50.764;4.332;2024-01-07T14:14:56;33.20;;;16.80;;
25581;SDS011;13462;50.764;4.332;2024-01-07T14:17:22;38.03;;;18.30;;
25581;SDS011;13462;50.764;4.332;2024-01-07T14:19:47;41.58;;;17.65;;
25581;SDS011;13462;50.764;4.332;2024-01-07T14:22:13;34.30;;;18.25;;
25581;SDS011;13462;50.764;4.332;2024-01-07T14:24:40;35.47;;;17.20;;
25581;SDS011;13462;50.764;4.332;2024-01-07T14:27:05;31.67;;;14.77;;
25581;SDS011;13462;50.764;4.332;2024-01-07T14:29:31;34.92;;;17.10;;
25581;SDS011;13462;50.764;4.332;2024-01-07T14:31:56;27.88;;;16.10;;
25581;SDS011;13462;50.764;4.332;2024-01-07T14:34:22;32.15;;;16.58;;
25581;SDS011;13462;50.764;4.332;2024-01-07T14:36:48;38.88;;;18.65;;
25581;SDS011;13462;50.764;4.332;2024-01-07T14:39:14;31.23;;;16.35;;
25581;SDS011;13462;50.764;4.332;2024-01-07T14:41:39;32.15;;;16.55;;
25581;SDS011;13462;50.764;4.332;2024-01-07T14:44:05;36.05;;;17.00;;